createdAt,value
2022-12-13T00:00:28.109Z,3.23
2022-12-13T00:03:38.295Z,2.53
2022-12-13T00:06:46.604Z,2.77
2022-12-13T00:09:54.788Z,2.77
2022-12-13T00:13:04.546Z,2.93
2022-12-13T00:16:16.345Z,2.37
2022-12-13T00:19:26.088Z,2.60
2022-12-13T00:22:34.290Z,2.63
2022-12-13T00:25:42.495Z,2.97
2022-12-13T00:28:51.467Z,2.00
2022-12-13T00:32:01.134Z,2.70
2022-12-13T00:35:11.593Z,2.00
2022-12-13T00:38:20.210Z,3.37
2022-12-13T00:41:31.816Z,1.60
2022-12-13T00:44:40.119Z,1.90
2022-12-13T00:47:48.465Z,2.03
2022-12-13T00:50:58.064Z,2.00
2022-12-13T00:54:07.721Z,1.60
2022-12-13T00:57:16.080Z,2.30
2022-12-13T01:00:25.564Z,2.10
2022-12-13T01:03:34.231Z,2.00
2022-12-13T01:06:46.882Z,2.10
2022-12-13T01:09:55.164Z,1.47
2022-12-13T01:13:04.418Z,2.53
2022-12-13T01:16:14.755Z,1.57
2022-12-13T01:19:23.779Z,2.60
2022-12-13T01:22:33.540Z,1.80
2022-12-13T01:25:42.505Z,1.80
2022-12-13T01:28:51.042Z,2.30
2022-12-13T01:31:59.386Z,1.90
2022-12-13T01:35:08.679Z,1.73
2022-12-13T01:38:18.705Z,2.30
2022-12-13T01:41:29.065Z,2.63
2022-12-13T01:45:06.802Z,2.23
2022-12-13T01:48:24.043Z,2.43
2022-12-13T01:51:44.165Z,1.93
2022-12-13T01:55:03.820Z,2.20
2022-12-13T01:58:15.282Z,2.23
2022-12-13T02:01:24.314Z,1.90
2022-12-13T02:04:44.562Z,2.53
2022-12-13T02:07:53.319Z,2.00
2022-12-13T02:11:04.989Z,2.00
2022-12-13T02:14:13.187Z,2.67
2022-12-13T02:17:45.225Z,3.20
2022-12-13T02:21:07.208Z,3.60
2022-12-13T02:29:48.494Z,2.13
2022-12-13T02:33:26.642Z,1.30
2022-12-13T02:36:48.500Z,2.27
2022-12-13T02:40:08.499Z,3.07
2022-12-13T02:43:24.727Z,3.00
2022-12-13T02:46:52.643Z,3.53
2022-12-13T02:50:08.077Z,4.60
2022-12-13T02:53:17.985Z,4.57
2022-12-13T02:56:26.240Z,5.20
2022-12-13T02:59:39.224Z,3.70
2022-12-13T03:03:08.059Z,4.47
2022-12-13T03:06:40.881Z,4.23
2022-12-13T03:10:00.496Z,3.80
2022-12-13T03:13:34.458Z,3.80
2022-12-13T03:16:48.200Z,3.63
2022-12-13T03:19:57.220Z,4.00
2022-12-13T03:23:06.808Z,4.37
2022-12-13T03:26:19.514Z,4.73
2022-12-13T03:29:27.813Z,4.63
2022-12-13T03:32:36.081Z,4.27
2022-12-13T03:35:45.993Z,4.43
2022-12-13T03:38:56.467Z,3.70
2022-12-13T03:42:05.088Z,4.03
2022-12-13T03:45:13.521Z,3.93
2022-12-13T03:48:24.292Z,3.03
2022-12-13T03:51:32.632Z,3.73
2022-12-13T03:54:45.368Z,2.80
2022-12-13T03:58:10.352Z,2.67
2022-12-13T04:01:22.225Z,4.00
2022-12-13T04:04:30.722Z,3.87
2022-12-13T04:07:38.913Z,3.13
2022-12-13T04:10:57.607Z,2.63
2022-12-13T04:14:04.797Z,2.97
2022-12-13T04:17:13.309Z,2.43
2022-12-13T04:20:21.666Z,3.03
2022-12-13T04:23:29.959Z,2.77
2022-12-13T04:26:39.605Z,2.87
2022-12-13T04:29:47.886Z,2.57
2022-12-13T04:32:56.806Z,2.60
2022-12-13T04:36:05.620Z,4.37
2022-12-13T04:39:22.699Z,1.70
2022-12-13T04:42:32.599Z,3.37
2022-12-13T04:45:42.978Z,2.73
2022-12-13T04:48:51.370Z,2.70
2022-12-13T04:52:01.656Z,4.53
2022-12-13T04:55:11.110Z,1.93
2022-12-13T04:58:23.131Z,2.13
2022-12-13T05:01:31.823Z,2.30
2022-12-13T05:04:40.082Z,2.20
2022-12-13T05:07:48.512Z,1.50
2022-12-13T05:10:56.978Z,1.77
2022-12-13T05:14:06.755Z,3.17
2022-12-13T05:17:15.055Z,2.13
2022-12-13T05:20:23.324Z,2.50
2022-12-13T05:23:32.177Z,2.00
2022-12-13T05:26:40.788Z,2.60
2022-12-13T05:29:50.472Z,2.50
2022-12-13T05:32:58.792Z,2.57
2022-12-13T05:36:08.276Z,3.33
2022-12-13T05:39:28.255Z,2.30
2022-12-13T05:42:39.111Z,2.10
2022-12-13T05:45:48.846Z,2.33
2022-12-13T05:48:57.124Z,2.93
2022-12-13T05:52:06.074Z,2.97
2022-12-13T05:55:15.188Z,1.67
2022-12-13T05:58:23.937Z,1.27
2022-12-13T06:01:33.731Z,1.37
2022-12-13T06:04:41.984Z,2.00
2022-12-13T06:07:56.561Z,1.97
2022-12-13T06:11:11.680Z,3.47
2022-12-13T06:14:22.673Z,2.10
2022-12-13T06:17:36.156Z,2.90
2022-12-13T06:20:45.470Z,2.63
2022-12-13T06:23:54.079Z,1.57
2022-12-13T06:27:02.508Z,2.23
2022-12-13T06:30:12.543Z,2.17
2022-12-13T06:33:23.582Z,2.63
2022-12-13T06:36:32.326Z,2.47
2022-12-13T06:39:41.443Z,2.57
2022-12-13T06:42:52.511Z,1.83
2022-12-13T06:46:03.477Z,2.97
2022-12-13T06:49:13.217Z,1.90
2022-12-13T06:52:21.470Z,2.77
2022-12-13T06:55:29.808Z,2.33
2022-12-13T06:58:38.540Z,2.83
2022-12-13T07:01:50.752Z,2.10
2022-12-13T07:05:00.887Z,4.03
2022-12-13T07:08:11.269Z,4.77
2022-12-13T07:11:22.980Z,3.57
2022-12-13T07:14:31.283Z,3.80
2022-12-13T07:17:39.606Z,3.20
2022-12-13T07:20:50.969Z,3.67
2022-12-13T07:23:59.820Z,4.00
2022-12-13T07:27:07.991Z,3.10
2022-12-13T07:30:16.356Z,1.70
2022-12-13T07:33:25.411Z,2.10
2022-12-13T07:36:35.272Z,2.87
2022-12-13T07:39:43.508Z,2.37
2022-12-13T07:42:52.163Z,2.37
2022-12-13T07:46:02.211Z,3.13
2022-12-13T07:49:10.459Z,2.33
2022-12-13T07:52:19.997Z,2.20
2022-12-13T07:55:33.679Z,2.13
2022-12-13T07:58:45.986Z,2.80
2022-12-13T08:01:54.535Z,2.60
2022-12-13T08:05:26.040Z,2.87
2022-12-13T08:08:34.226Z,2.00
2022-12-13T08:11:42.661Z,2.27
2022-12-13T08:14:53.277Z,3.07
2022-12-13T08:18:01.900Z,2.90
2022-12-13T08:21:37.255Z,3.10
2022-12-13T08:24:40.186Z,2.60
2022-12-13T08:27:48.716Z,2.50
2022-12-13T08:31:03.670Z,2.87
2022-12-13T08:34:11.968Z,3.37
2022-12-13T08:37:20.332Z,2.83
2022-12-13T08:40:31.708Z,2.80
2022-12-13T08:43:40.490Z,2.20
2022-12-13T08:46:48.856Z,2.97
2022-12-13T08:50:01.933Z,3.00
2022-12-13T08:53:12.021Z,2.83
2022-12-13T08:56:39.468Z,2.87
2022-12-13T08:59:52.130Z,3.60
2022-12-13T09:03:00.509Z,2.77
2022-12-13T09:06:11.207Z,3.37
2022-12-13T09:09:19.809Z,3.53
2022-12-13T09:12:30.404Z,3.50
2022-12-13T09:15:46.130Z,4.53
2022-12-13T09:18:56.079Z,4.33
2022-12-13T09:22:04.900Z,4.47
2022-12-13T09:25:14.761Z,4.77
2022-12-13T09:28:26.369Z,4.53
2022-12-13T09:31:38.109Z,4.67
2022-12-13T09:34:46.531Z,4.87
2022-12-13T09:37:56.820Z,4.63
2022-12-13T09:41:20.158Z,5.10
2022-12-13T09:44:42.406Z,5.23
2022-12-13T09:48:01.092Z,4.33
2022-12-13T09:51:17.284Z,4.70
2022-12-13T09:54:47.141Z,5.27
2022-12-13T09:57:57.488Z,4.20
2022-12-13T10:01:07.730Z,5.47
2022-12-13T10:04:19.953Z,3.63
2022-12-13T10:07:28.291Z,4.83
2022-12-13T10:10:36.812Z,3.90
2022-12-13T10:13:53.364Z,4.83
2022-12-13T10:17:08.270Z,4.03
2022-12-13T10:20:21.965Z,4.53
2022-12-13T10:23:42.650Z,3.57
2022-12-13T10:26:51.394Z,4.20
2022-12-13T10:30:12.573Z,4.33
2022-12-13T10:33:28.353Z,4.60
2022-12-13T10:36:41.356Z,3.70
2022-12-13T10:39:49.841Z,4.47
2022-12-13T10:43:15.556Z,4.20
2022-12-13T10:46:25.582Z,3.97
2022-12-13T10:49:48.572Z,4.80
2022-12-13T10:53:00.125Z,4.90
2022-12-13T10:56:09.431Z,4.67
2022-12-13T10:59:31.915Z,4.67
2022-12-13T11:02:41.706Z,4.77
2022-12-13T11:06:05.622Z,4.73
2022-12-13T11:09:22.988Z,4.43
2022-12-13T11:12:32.013Z,4.53
2022-12-13T11:15:40.522Z,5.63
2022-12-13T11:18:55.448Z,5.13
2022-12-13T11:22:07.034Z,5.87
2022-12-13T11:25:26.352Z,5.53
2022-12-13T11:29:14.054Z,5.00
2022-12-13T11:32:42.832Z,5.67
2022-12-13T11:36:09.405Z,5.30
2022-12-13T11:39:28.784Z,5.20
2022-12-13T11:42:46.582Z,5.33
2022-12-13T11:46:00.896Z,4.63
2022-12-13T11:49:18.152Z,6.60
2022-12-13T11:52:33.006Z,5.87
2022-12-13T11:55:53.559Z,5.37
2022-12-13T11:59:20.721Z,5.40
2022-12-13T12:02:43.032Z,5.07
2022-12-13T12:05:56.862Z,5.60
2022-12-13T12:09:13.375Z,5.10
2022-12-13T12:12:33.064Z,4.97
2022-12-13T12:15:55.095Z,3.63
2022-12-13T12:19:03.826Z,4.07
2022-12-13T12:22:32.189Z,4.60
2022-12-13T12:25:51.662Z,4.13
2022-12-13T12:29:28.779Z,4.77
2022-12-13T12:32:48.760Z,4.07
2022-12-13T12:36:32.938Z,4.53
2022-12-13T12:39:57.316Z,5.10
2022-12-13T12:43:20.620Z,4.70
2022-12-13T12:47:01.424Z,4.30
2022-12-13T12:50:42.814Z,4.03
2022-12-13T12:54:08.000Z,3.73
2022-12-13T12:57:24.665Z,3.40
2022-12-13T13:00:49.526Z,3.73
2022-12-13T13:04:05.765Z,3.60
2022-12-13T13:07:23.878Z,4.07
2022-12-13T13:10:33.788Z,4.60
2022-12-13T13:13:49.726Z,4.47
2022-12-13T13:16:59.447Z,5.00
2022-12-13T13:20:23.509Z,4.17
2022-12-13T13:23:40.607Z,4.43
2022-12-13T13:26:52.965Z,4.60
2022-12-13T13:30:08.886Z,5.60
2022-12-13T13:33:47.350Z,5.17
2022-12-13T13:36:58.354Z,5.27
2022-12-13T13:40:34.382Z,5.23
2022-12-13T13:43:42.683Z,6.27
2022-12-13T13:47:13.386Z,6.70
2022-12-13T13:51:00.643Z,7.97
2022-12-13T13:55:00.196Z,5.80
2022-12-13T13:59:18.506Z,6.13
2022-12-13T14:03:35.272Z,5.37
2022-12-13T14:07:39.766Z,5.17
2022-12-13T14:11:21.224Z,4.63
2022-12-13T14:15:22.824Z,5.70
2022-12-13T14:19:31.979Z,4.93
2022-12-13T14:23:08.098Z,5.17
2022-12-13T14:26:52.480Z,4.77
2022-12-13T14:30:17.878Z,4.23
2022-12-13T14:33:35.326Z,5.17
2022-12-13T14:36:49.602Z,6.43
2022-12-13T14:39:58.827Z,5.90
2022-12-13T14:43:25.232Z,5.73
2022-12-13T14:46:34.246Z,6.87
2022-12-13T14:49:48.747Z,6.70
2022-12-13T14:52:58.808Z,6.60
2022-12-13T14:56:28.493Z,6.83
2022-12-13T14:59:50.506Z,6.43
2022-12-13T15:03:04.151Z,6.37
2022-12-13T15:06:13.092Z,6.77
2022-12-13T15:09:21.915Z,7.20
2022-12-13T15:12:30.934Z,7.37
2022-12-13T15:15:40.978Z,7.10
2022-12-13T15:18:50.876Z,6.77
2022-12-13T15:22:07.561Z,7.10
2022-12-13T15:25:20.224Z,6.40
2022-12-13T15:28:34.571Z,7.43
2022-12-13T15:31:48.892Z,5.73
2022-12-13T15:34:58.453Z,6.63
2022-12-13T15:38:14.540Z,8.20
2022-12-13T15:41:48.112Z,6.43
2022-12-13T15:45:01.335Z,6.57
2022-12-13T15:48:27.399Z,8.07
2022-12-13T15:51:58.928Z,7.53
2022-12-13T15:55:36.672Z,7.27
2022-12-13T15:58:55.714Z,5.93
2022-12-13T16:02:05.606Z,20.60
2022-12-13T16:05:30.127Z,13.53
2022-12-13T16:08:41.034Z,11.83
2022-12-13T16:11:55.834Z,8.50
2022-12-13T16:15:29.086Z,9.07
2022-12-13T16:18:47.318Z,10.87
2022-12-13T16:21:57.156Z,8.43
2022-12-13T16:25:06.625Z,7.97
2022-12-13T16:28:17.348Z,9.37
2022-12-13T16:31:31.261Z,10.80
2022-12-13T16:34:39.791Z,9.33
2022-12-13T16:37:51.390Z,7.20
2022-12-13T16:41:09.255Z,7.50
2022-12-13T16:44:26.684Z,7.70
2022-12-13T16:47:41.809Z,7.57
2022-12-13T16:51:28.056Z,8.43
2022-12-13T16:54:42.425Z,11.67
2022-12-13T16:58:00.199Z,9.00
2022-12-13T17:01:11.240Z,8.80
2022-12-13T17:04:27.013Z,10.47
2022-12-13T17:07:36.523Z,12.33
2022-12-13T17:10:47.003Z,9.07
2022-12-13T17:14:06.938Z,8.83
2022-12-13T17:17:17.778Z,8.97
2022-12-13T17:20:27.296Z,11.53
2022-12-13T17:23:36.046Z,12.03
2022-12-13T17:26:53.845Z,13.67
2022-12-13T17:30:03.186Z,10.97
2022-12-13T17:33:13.329Z,10.97
2022-12-13T17:36:21.642Z,12.03
2022-12-13T17:39:30.101Z,10.93
2022-12-13T17:42:40.157Z,9.10
2022-12-13T17:45:48.985Z,10.07
2022-12-13T17:48:57.403Z,11.97
2022-12-13T17:52:08.316Z,17.53
2022-12-13T17:55:18.819Z,13.23
2022-12-13T17:58:34.310Z,9.17
2022-12-13T18:01:46.278Z,8.33
2022-12-13T18:04:57.495Z,6.77
2022-12-13T18:08:09.321Z,9.03
2022-12-13T18:11:32.800Z,8.07
2022-12-13T18:14:48.431Z,8.77
2022-12-13T18:18:15.690Z,9.53
2022-12-13T18:21:32.094Z,9.13
2022-12-13T18:24:41.307Z,9.63
2022-12-13T18:27:49.711Z,9.57
2022-12-13T18:31:00.317Z,9.20
2022-12-13T18:34:09.496Z,9.07
2022-12-13T18:37:17.797Z,9.03
2022-12-13T18:40:26.701Z,9.57
2022-12-13T18:43:35.303Z,8.90
2022-12-13T18:46:47.047Z,8.07
2022-12-13T18:49:55.588Z,11.53
2022-12-13T18:53:04.086Z,8.83
2022-12-13T18:56:19.220Z,8.30
2022-12-13T18:59:30.648Z,10.47
2022-12-13T19:02:41.215Z,9.97
2022-12-13T19:05:49.793Z,9.80
2022-12-13T19:08:59.390Z,8.13
2022-12-13T19:12:08.151Z,8.23
2022-12-13T19:15:16.946Z,8.43
2022-12-13T19:18:26.988Z,8.23
2022-12-13T19:21:35.429Z,9.30
2022-12-13T19:24:43.900Z,10.07
2022-12-13T19:27:56.624Z,6.73
2022-12-13T19:31:06.365Z,7.17
2022-12-13T19:34:16.321Z,7.60
2022-12-13T19:37:24.841Z,7.60
2022-12-13T19:40:33.366Z,7.63
2022-12-13T19:43:43.822Z,8.87
2022-12-13T19:46:56.041Z,7.37
2022-12-13T19:50:07.588Z,7.80
2022-12-13T19:53:16.268Z,8.77
2022-12-13T19:56:25.209Z,6.90
2022-12-13T19:59:38.802Z,6.97
2022-12-13T20:02:48.211Z,7.53
2022-12-13T20:06:00.979Z,6.53
2022-12-13T20:09:09.512Z,6.90
2022-12-13T20:12:17.831Z,6.17
2022-12-13T20:15:26.322Z,6.90
2022-12-13T20:18:39.129Z,7.40
2022-12-13T20:21:52.328Z,6.60
2022-12-13T20:25:07.025Z,6.83
2022-12-13T20:28:16.553Z,7.67
2022-12-13T20:31:27.395Z,7.23
2022-12-13T20:34:36.023Z,8.70
2022-12-13T20:37:48.245Z,8.00
2022-12-13T20:41:01.556Z,7.53
2022-12-13T20:44:13.359Z,7.00
2022-12-13T20:47:22.046Z,8.10
2022-12-13T20:50:31.567Z,8.50
2022-12-13T20:53:44.640Z,9.00
2022-12-13T20:57:10.104Z,8.33
2022-12-13T21:00:22.948Z,7.30
2022-12-13T21:03:31.307Z,6.43
2022-12-13T21:06:42.738Z,6.33
2022-12-13T21:09:52.633Z,6.23
2022-12-13T21:13:01.807Z,6.20
2022-12-13T21:16:13.279Z,5.67
2022-12-13T21:19:24.170Z,6.53
2022-12-13T21:22:32.519Z,6.63
2022-12-13T21:25:43.381Z,6.37
2022-12-13T21:28:54.668Z,5.87
2022-12-13T21:32:03.666Z,6.77
2022-12-13T21:35:12.135Z,7.13
2022-12-13T21:38:21.382Z,6.27
2022-12-13T21:41:31.724Z,5.77
2022-12-13T21:44:40.101Z,6.43
2022-12-13T21:47:49.103Z,6.20
2022-12-13T21:50:57.613Z,7.27
2022-12-13T21:54:06.568Z,6.47
2022-12-13T21:57:33.989Z,7.60
2022-12-13T22:00:42.624Z,6.03
2022-12-13T22:03:51.011Z,8.30
2022-12-13T22:06:59.988Z,6.50
2022-12-13T22:10:10.093Z,7.53
2022-12-13T22:13:19.771Z,6.80
2022-12-13T22:16:28.821Z,6.87
2022-12-13T22:19:37.348Z,5.90
2022-12-13T22:22:48.414Z,6.80
2022-12-13T22:25:57.947Z,6.53
2022-12-13T22:29:08.966Z,7.33
2022-12-13T22:32:17.589Z,7.13
2022-12-13T22:35:26.164Z,7.33
2022-12-13T22:38:35.052Z,7.27
2022-12-13T22:41:43.519Z,6.63
2022-12-13T22:44:53.209Z,6.73
2022-12-13T22:48:01.502Z,7.73
2022-12-13T22:51:12.817Z,7.27
2022-12-13T22:54:21.408Z,7.07
2022-12-13T22:57:29.695Z,8.17
2022-12-13T23:00:39.443Z,6.67
2022-12-13T23:03:48.715Z,7.23
2022-12-13T23:06:57.031Z,6.80
2022-12-13T23:10:27.189Z,6.00
2022-12-13T23:13:34.421Z,6.73
2022-12-13T23:16:44.477Z,5.93
2022-12-13T23:19:53.484Z,6.23
2022-12-13T23:23:09.121Z,7.33
2022-12-13T23:26:20.485Z,7.60
2022-12-13T23:29:28.685Z,7.57
2022-12-13T23:32:38.291Z,7.23
2022-12-13T23:35:46.613Z,7.17
2022-12-13T23:38:55.461Z,7.20
2022-12-13T23:42:03.856Z,7.60
2022-12-13T23:45:12.771Z,6.80
2022-12-13T23:48:26.904Z,6.63
2022-12-13T23:51:37.825Z,6.90
2022-12-13T23:54:46.116Z,7.73
2022-12-13T23:57:54.316Z,7.03
